Time;durP1;ratioP1;P1;durP2;ratioP2;P2;SDS_P1;SDS_P2;PMS_P1;PMS_P2;Temp;Humidity;BMP_temperature;BMP_pressure;BME280_temperature;BME280_humidity;BME280_pressure;Samples;Min_cycle;Max_cycle;Signal;HPM_P1;HPM_P2
2021/11/19 00:01:53;;;;;;;40.05;11.82;;;;;;;10.99;91.21;102807.06;5055688;28;20029;-71
2021/11/19 00:04:19;;;;;;;33.70;11.57;;;;;;;11.02;91.36;102804.22;5055489;28;20439;-71
2021/11/19 00:06:44;;;;;;;28.20;10.88;;;;;;;11.02;91.44;102799.03;5037790;28;20116;-71
2021/11/19 00:09:10;;;;;;;21.02;9.98;;;;;;;10.99;91.47;102799.31;5037675;28;20029;-71
2021/11/19 00:11:43;;;;;;;27.67;10.77;;;;;;;11.05;90.99;102806.50;5055498;28;20060;-71
2021/11/19 00:14:09;;;;;;;29.55;10.82;;;;;;;11.04;91.25;102811.81;5055506;28;20379;-71
2021/11/19 00:16:37;;;;;;;29.50;10.52;;;;;;;11.05;90.83;102819.44;5037531;28;20021;-71
2021/11/19 00:19:03;;;;;;;29.33;10.55;;;;;;;11.04;91.22;102825.56;5037189;28;20442;-71
2021/11/19 00:21:30;;;;;;;26.00;10.35;;;;;;;11.03;91.59;102825.72;5037411;28;20162;-72
2021/11/19 00:23:56;;;;;;;22.90;10.85;;;;;;;11.05;91.11;102818.63;5054687;28;20101;-71
2021/11/19 00:26:23;;;;;;;24.92;10.60;;;;;;;11.10;91.15;102824.19;5037314;28;20108;-71
2021/11/19 00:28:49;;;;;;;29.48;10.93;;;;;;;11.13;91.26;102828.28;5055198;28;20028;-71
2021/11/19 00:31:15;;;;;;;26.65;10.52;;;;;;;11.09;91.47;102812.22;5055213;28;20488;-71
2021/11/19 00:33:41;;;;;;;25.73;10.32;;;;;;;11.05;91.53;102809.09;5055669;28;20048;-71
2021/11/19 00:36:08;;;;;;;23.90;10.52;;;;;;;11.07;91.33;102819.28;5055071;28;20107;-70
2021/11/19 00:38:38;;;;;;;24.48;10.27;;;;;;;11.05;91.16;102811.69;5055092;28;20456;-70
2021/11/19 00:41:07;;;;;;;28.85;9.93;;;;;;;11.09;91.43;102812.22;5055047;28;20170;-70
2021/11/19 00:43:32;;;;;;;23.83;9.35;;;;;;;11.13;90.95;102804.97;5037051;28;20025;-70
2021/11/19 00:45:58;;;;;;;24.13;9.40;;;;;;;11.15;90.95;102814.25;5055119;28;20044;-70
2021/11/19 00:48:25;;;;;;;24.13;9.90;;;;;;;11.11;91.20;102806.91;5036945;28;20124;-70
2021/11/19 00:50:57;;;;;;;24.70;10.40;;;;;;;11.00;91.05;102800.94;5055471;28;20382;-70
2021/11/19 00:53:23;;;;;;;22.77;9.70;;;;;;;11.01;91.35;102812.91;5054838;28;20551;-70
2021/11/19 00:55:49;;;;;;;21.35;9.30;;;;;;;11.06;91.04;102820.25;5054557;28;20099;-70
2021/11/19 00:58:16;;;;;;;19.40;9.00;;;;;;;11.08;91.17;102815.78;5054585;28;20025;-70
2021/11/19 01:00:49;;;;;;;20.48;9.77;;;;;;;11.11;90.68;102809.50;5054633;28;20082;-70
2021/11/19 01:03:15;;;;;;;23.17;9.30;;;;;;;11.02;91.17;102813.75;5054628;28;20094;-70
2021/11/19 01:05:41;;;;;;;21.35;9.48;;;;;;;11.10;90.95;102813.84;5054359;28;20120;-70
2021/11/19 01:08:07;;;;;;;21.60;8.85;;;;;;;11.14;90.81;102815.22;5054419;28;20112;-70
2021/11/19 01:10:35;;;;;;;26.83;9.57;;;;;;;11.18;90.72;102815.72;5054316;28;20024;-70
2021/11/19 01:13:01;;;;;;;17.20;9.00;;;;;;;11.21;90.60;102818.03;5054787;28;20050;-70
2021/11/19 01:15:39;;;;;;;21.63;8.57;;;;;;;11.15;90.67;102814.25;5036379;28;20514;-70
2021/11/19 01:18:18;;;;;;;24.30;9.20;;;;;;;11.09;91.44;102812.22;5054610;28;20483;-70
2021/11/19 01:20:51;;;;;;;24.35;9.10;;;;;;;11.16;90.92;102813.28;5054826;28;20025;-70
2021/11/19 01:23:20;;;;;;;16.08;8.70;;;;;;;11.24;90.47;102803.03;5054217;28;20021;-70
2021/11/19 01:25:51;;;;;;;17.88;8.70;;;;;;;11.18;90.48;102807.97;5054195;28;20361;-70
2021/11/19 01:28:17;;;;;;;16.45;8.60;;;;;;;11.18;91.16;102807.97;5054122;28;20039;-70
2021/11/19 01:30:59;;;;;;;18.40;8.68;;;;;;;11.21;91.08;102808.50;5054091;28;20095;-70
2021/11/19 01:33:26;;;;;;;22.95;8.43;;;;;;;11.23;90.75;102804.00;5054003;28;20032;-70
2021/11/19 01:35:51;;;;;;;19.75;8.82;;;;;;;11.17;90.97;102806.34;5035455;28;20028;-71
2021/11/19 01:38:16;;;;;;;19.85;9.00;;;;;;;11.22;91.03;102804.97;5053965;28;20379;-70
2021/11/19 01:40:48;;;;;;;19.63;8.60;;;;;;;11.25;90.55;102807.28;5053874;28;20016;-70
2021/11/19 01:43:14;;;;;;;18.55;8.43;;;;;;;11.25;90.90;102807.28;5054133;28;20036;-70
2021/11/19 01:45:51;;;;;;;19.15;8.27;;;;;;;11.24;91.04;102800.44;5035950;28;20029;-70
2021/11/19 01:48:21;;;;;;;15.38;7.93;;;;;;;11.28;90.98;102803.59;5054344;28;20028;-70
2021/11/19 01:50:55;;;;;;;19.00;9.18;;;;;;;11.33;90.86;102805.72;5035882;28;20028;-70
2021/11/19 01:53:38;;;;;;;20.30;8.52;;;;;;;11.34;90.92;102804.78;5035739;28;20036;-70
2021/11/19 01:56:11;;;;;;;16.63;8.73;;;;;;;11.29;90.96;102807.78;5053613;28;20028;-70
2021/11/19 01:58:58;;;;;;;23.92;9.35;;;;;;;11.26;90.94;102800.31;5053918;28;20024;-70
2021/11/19 02:01:36;;;;;;;20.38;9.02;;;;;;;11.28;91.14;102806.97;5035744;28;20025;-70
2021/11/19 02:04:07;;;;;;;20.23;8.50;;;;;;;11.32;91.19;102801.53;5035378;28;20053;-70
2021/11/19 02:06:54;;;;;;;16.08;8.35;;;;;;;11.42;91.10;102807.47;5053985;28;20025;-70
2021/11/19 02:10:03;;;;;;;16.67;8.60;;;;;;;11.43;90.77;102801.34;5053990;28;20091;-70
2021/11/19 02:12:41;;;;;;;19.80;9.00;;;;;;;11.47;90.69;102792.31;5035947;28;20064;-70
2021/11/19 02:15:13;;;;;;;16.75;8.63;;;;;;;11.48;90.26;102792.19;5035452;28;20032;-70
2021/11/19 02:17:41;;;;;;;17.45;8.52;;;;;;;11.50;90.67;102800.59;5035444;28;20036;-70
2021/11/19 02:20:12;;;;;;;17.13;8.57;;;;;;;11.40;91.02;102796.47;5035394;28;20029;-70
2021/11/19 02:22:42;;;;;;;19.92;8.45;;;;;;;11.43;90.87;102803.94;5053303;28;20056;-70
2021/11/19 02:25:17;;;;;;;15.88;8.30;;;;;;;11.38;91.12;102785.41;5053250;28;20063;-70
2021/11/19 02:27:50;;;;;;;15.82;8.10;;;;;;;11.42;91.23;102790.19;5035609;28;20067;-70
2021/11/19 02:30:20;;;;;;;21.63;8.60;;;;;;;11.41;90.95;102782.53;5053159;28;20400;-70
2021/11/19 02:32:50;;;;;;;19.13;8.52;;;;;;;11.41;91.33;102783.34;5053143;28;20021;-70
2021/11/19 02:35:20;;;;;;;20.02;8.93;;;;;;;11.41;91.29;102783.34;5053124;28;20029;-70
2021/11/19 02:37:52;;;;;;;13.32;8.30;;;;;;;11.45;90.77;102782.13;5035270;28;20521;-70
2021/11/19 02:40:22;;;;;;;18.35;8.88;;;;;;;11.43;90.88;102778.84;5053108;28;20021;-70
2021/11/19 02:42:51;;;;;;;20.85;9.65;;;;;;;11.42;91.07;102769.47;5053090;28;20106;-70
2021/11/19 02:45:22;;;;;;;20.45;9.27;;;;;;;11.42;91.06;102771.22;5053016;28;20025;-70
2021/11/19 02:47:47;;;;;;;22.23;9.85;;;;;;;11.43;91.09;102773.69;5054766;28;20507;-71
2021/11/19 02:50:15;;;;;;;23.48;9.38;;;;;;;11.36;91.52;102764.03;5057041;28;20207;-70
2021/11/19 02:52:43;;;;;;;23.10;9.68;;;;;;;11.47;90.83;102762.06;5039100;28;20029;-70
2021/11/19 02:55:16;;;;;;;26.05;10.15;;;;;;;11.50;91.18;102769.53;5056845;28;20032;-70
2021/11/19 02:57:42;;;;;;;23.00;9.52;;;;;;;11.42;91.33;102769.47;5057020;28;20035;-70
2021/11/19 03:00:25;;;;;;;23.33;9.90;;;;;;;11.39;91.36;102772.31;5056847;28;20108;-70
2021/11/19 03:02:51;;;;;;;22.55;10.20;;;;;;;11.40;91.29;102766.19;5057140;28;20135;-70
2021/11/19 03:05:19;;;;;;;25.48;10.48;;;;;;;11.41;91.75;102773.00;5056758;28;20132;-69
2021/11/19 03:07:45;;;;;;;21.02;10.25;;;;;;;11.42;91.32;102756.53;5038858;28;20609;-69
2021/11/19 03:10:15;;;;;;;24.02;9.90;;;;;;;11.42;91.69;102760.88;5056788;28;20422;-69
2021/11/19 03:12:40;;;;;;;19.77;10.27;;;;;;;11.46;91.57;102760.44;5056968;28;20029;-69
2021/11/19 03:15:16;;;;;;;19.58;10.07;;;;;;;11.46;91.34;102765.63;5038598;28;20036;-70
2021/11/19 03:17:42;;;;;;;25.88;10.65;;;;;;;11.55;91.14;102766.53;5038744;28;20021;-70
2021/11/19 03:20:09;;;;;;;19.80;10.57;;;;;;;11.53;91.46;102766.66;5056574;28;20049;-70
2021/11/19 03:22:34;;;;;;;22.63;10.15;;;;;;;11.60;90.92;102760.94;5056711;28;20379;-70
2021/11/19 03:25:00;;;;;;;27.42;11.13;;;;;;;11.44;91.27;102749.41;5056402;28;20017;-70
2021/11/19 03:27:28;;;;;;;22.80;10.90;;;;;;;11.43;91.82;102750.38;5056406;28;20068;-70
2021/11/19 03:29:55;;;;;;;23.10;12.18;;;;;;;11.48;91.44;102755.13;5056350;28;20024;-70
2021/11/19 03:32:24;;;;;;;18.17;10.75;;;;;;;11.48;91.05;102752.53;5056800;28;20368;-70
2021/11/19 03:34:50;;;;;;;28.92;11.27;;;;;;;11.48;91.52;102755.13;5056450;28;20116;-70
2021/11/19 03:37:16;;;;;;;20.58;11.50;;;;;;;11.52;91.12;102757.28;5056179;28;20039;-70
2021/11/19 03:39:42;;;;;;;23.00;11.20;;;;;;;11.50;91.29;102759.19;5038247;28;20025;-70
2021/11/19 03:42:10;;;;;;;18.85;10.70;;;;;;;11.55;91.12;102758.75;5038296;28;20025;-70
2021/11/19 03:44:49;;;;;;;24.33;11.45;;;;;;;11.56;91.35;102760.38;5038125;28;20017;-70
2021/11/19 03:47:22;;;;;;;24.80;11.38;;;;;;;11.56;91.44;102762.16;5056073;28;20114;-70
2021/11/19 03:49:50;;;;;;;24.17;11.70;;;;;;;11.44;91.73;102764.13;5056307;28;20025;-70
2021/11/19 03:52:23;;;;;;;30.48;11.93;;;;;;;11.48;91.50;102762.91;5055965;28;20033;-69
2021/11/19 03:54:51;;;;;;;29.42;12.05;;;;;;;11.50;91.69;102766.94;5055765;28;20040;-69
2021/11/19 03:57:19;;;;;;;27.77;11.80;;;;;;;11.55;91.54;102769.13;5037950;28;20024;-70
2021/11/19 03:59:45;;;;;;;25.60;10.73;;;;;;;11.47;91.84;102769.81;5054980;28;20056;-69
2021/11/19 04:02:12;;;;;;;27.45;11.60;;;;;;;11.49;91.85;102773.09;5055750;28;20494;-69
2021/11/19 04:04:39;;;;;;;27.15;12.52;;;;;;;11.52;91.53;102779.75;5037654;28;20522;-69
2021/11/19 04:07:07;;;;;;;24.90;11.40;;;;;;;11.52;91.14;102780.56;5055707;28;20017;-70
2021/11/19 04:09:33;;;;;;;25.17;12.43;;;;;;;11.30;91.82;102762.81;5055520;28;20037;-69
2021/11/19 04:12:00;;;;;;;24.73;11.95;;;;;;;11.45;91.95;102783.88;5037716;28;20028;-70
2021/11/19 04:14:26;;;;;;;26.83;11.88;;;;;;;11.51;91.79;102788.50;5055565;28;20166;-69
2021/11/19 04:16:55;;;;;;;21.83;11.65;;;;;;;11.51;91.78;102786.72;5055418;28;20033;-69
2021/11/19 04:19:23;;;;;;;27.17;12.38;;;;;;;11.46;91.76;102788.09;5055438;28;20031;-69
2021/11/19 04:21:51;;;;;;;25.15;12.68;;;;;;;11.51;91.77;102791.09;5055420;28;20055;-69
2021/11/19 04:24:23;;;;;;;25.77;12.27;;;;;;;11.47;91.58;102793.13;5037487;28;20383;-71
2021/11/19 04:26:50;;;;;;;27.67;12.07;;;;;;;11.46;91.66;102785.53;5037541;28;20464;-71
2021/11/19 04:29:15;;;;;;;29.90;13.32;;;;;;;11.49;91.85;102786.03;5037410;28;20021;-70
2021/11/19 04:31:41;;;;;;;22.83;11.85;;;;;;;11.53;91.78;102782.19;5055264;28;20021;-69
2021/11/19 04:34:08;;;;;;;26.75;12.52;;;;;;;11.53;91.36;102782.19;5037339;28;20056;-71
2021/11/19 04:36:35;;;;;;;26.05;12.80;;;;;;;11.46;91.90;102782.94;5037139;28;20032;-69
2021/11/19 04:39:01;;;;;;;29.55;12.52;;;;;;;11.48;92.19;102786.19;5037233;28;20484;-69
2021/11/19 04:41:26;;;;;;;24.80;12.07;;;;;;;11.50;91.78;102785.06;5054909;28;20037;-71
2021/11/19 04:43:52;;;;;;;24.83;12.32;;;;;;;11.44;92.14;102788.25;5054972;28;20074;-70
2021/11/19 04:46:17;;;;;;;23.17;12.77;;;;;;;11.45;92.20;102781.28;5054993;28;20036;-70
2021/11/19 04:48:43;;;;;;;21.20;12.18;;;;;;;11.48;92.34;102788.78;5054839;28;20021;-70
2021/11/19 04:51:13;;;;;;;27.23;12.20;;;;;;;11.44;92.32;102787.44;5054815;28;20428;-70
2021/11/19 04:53:38;;;;;;;28.58;12.68;;;;;;;11.46;92.27;102790.69;5054750;28;20517;-70
2021/11/19 04:56:06;;;;;;;33.15;13.05;;;;;;;11.50;92.43;102794.63;5054721;28;20070;-71
2021/11/19 04:58:32;;;;;;;24.95;12.18;;;;;;;11.42;92.35;102786.75;5036766;28;20493;-70
2021/11/19 05:01:02;;;;;;;23.83;12.48;;;;;;;11.47;92.37;102785.38;5036732;28;20025;-70
2021/11/19 05:03:28;;;;;;;29.38;13.02;;;;;;;11.46;92.31;102791.50;5054640;28;20404;-70
2021/11/19 05:05:54;;;;;;;27.20;12.55;;;;;;;11.44;92.27;102777.88;5036495;28;20041;-70
2021/11/19 05:08:20;;;;;;;29.48;12.82;;;;;;;11.33;92.25;102761.72;5036852;28;20194;-70
2021/11/19 05:10:47;;;;;;;28.05;12.90;;;;;;;11.54;92.32;102788.22;5054476;28;20379;-70
2021/11/19 05:13:15;;;;;;;25.15;11.50;;;;;;;11.52;92.24;102783.16;5054914;28;20072;-70
2021/11/19 05:15:43;;;;;;;20.40;12.15;;;;;;;11.57;91.80;102793.09;5054282;28;20028;-70
2021/11/19 05:18:09;;;;;;;23.90;11.13;;;;;;;11.56;92.08;102788.88;5036443;28;20498;-70
2021/11/19 05:20:35;;;;;;;29.60;12.43;;;;;;;11.60;92.00;102790.22;5054831;28;20100;-70
2021/11/19 05:23:01;;;;;;;26.35;12.10;;;;;;;11.57;91.91;102790.50;5036559;28;20533;-70
2021/11/19 05:25:30;;;;;;;27.95;11.77;;;;;;;11.61;92.03;102785.84;5054163;28;20025;-70
2021/11/19 05:27:56;;;;;;;22.30;12.05;;;;;;;11.62;92.00;102783.09;5054141;28;20415;-70
2021/11/19 05:30:22;;;;;;;28.88;12.15;;;;;;;11.61;92.13;102781.47;5036156;28;20025;-71
2021/11/19 05:32:48;;;;;;;23.13;11.10;;;;;;;11.59;92.36;102785.16;5054061;28;20498;-70
2021/11/19 05:35:14;;;;;;;24.48;11.40;;;;;;;11.56;92.07;102783.69;5035915;28;20112;-70
2021/11/19 05:37:40;;;;;;;23.65;11.50;;;;;;;11.59;92.12;102788.56;5054007;28;20025;-70
2021/11/19 05:40:08;;;;;;;24.63;11.70;;;;;;;11.52;92.67;102790.94;5036063;28;20487;-70
2021/11/19 05:42:34;;;;;;;25.27;11.60;;;;;;;11.61;92.01;102794.44;5053745;28;20483;-70
2021/11/19 05:44:59;;;;;;;29.10;12.40;;;;;;;11.63;92.08;102791.72;5035905;28;20055;-71
2021/11/19 05:47:25;;;;;;;29.55;11.30;;;;;;;11.61;92.19;102788.44;5053796;28;20032;-70
2021/11/19 05:49:50;;;;;;;27.15;11.80;;;;;;;11.64;92.32;102788.16;5053709;28;20021;-70
2021/11/19 05:52:18;;;;;;;27.42;11.68;;;;;;;11.55;92.58;102784.66;5054263;28;20029;-71
2021/11/19 05:54:43;;;;;;;25.38;12.15;;;;;;;11.60;92.48;102786.81;5035679;28;20027;-71
2021/11/19 05:57:11;;;;;;;23.75;10.98;;;;;;;11.65;92.23;102782.00;5053580;28;20446;-70
2021/11/19 05:59:37;;;;;;;25.30;11.57;;;;;;;11.58;92.27;102793.91;5036038;28;20027;-71
2021/11/19 06:02:08;;;;;;;28.90;11.70;;;;;;;11.63;92.18;102783.94;5036017;28;20029;-70
2021/11/19 06:04:34;;;;;;;26.35;11.57;;;;;;;11.58;92.53;102783.56;5053307;28;20095;-71
2021/11/19 06:06:59;;;;;;;29.50;11.13;;;;;;;11.58;92.17;102774.00;5035573;28;20471;-71
2021/11/19 06:09:29;;;;;;;22.80;11.52;;;;;;;11.60;92.02;102785.03;5053399;28;20028;-70
2021/11/19 06:12:07;;;;;;;23.85;10.60;;;;;;;11.46;92.71;102764.81;5035596;28;20043;-70
2021/11/19 06:14:49;;;;;;;26.20;10.82;;;;;;;11.63;92.17;102789.13;5053349;28;20116;-70
2021/11/19 06:17:22;;;;;;;24.13;10.23;;;;;;;11.57;92.37;102792.28;5053315;28;20039;-70
2021/11/19 06:19:51;;;;;;;32.05;10.30;;;;;;;11.55;92.44;102789.03;5053345;28;20099;-70
2021/11/19 06:22:35;;;;;;;26.02;9.90;;;;;;;11.60;92.26;102782.44;5052898;28;20039;-70
2021/11/19 06:25:03;;;;;;;21.65;9.27;;;;;;;11.57;92.10;102784.53;5035593;28;20075;-70
2021/11/19 06:27:34;;;;;;;20.38;9.77;;;;;;;11.64;92.05;102785.56;5053182;28;20048;-70
2021/11/19 06:30:00;;;;;;;21.38;9.55;;;;;;;11.67;92.11;102788.66;5035474;28;20494;-70
2021/11/19 06:32:27;;;;;;;22.02;8.80;;;;;;;11.65;92.40;102784.59;5053349;28;20025;-70
2021/11/19 06:34:53;;;;;;;20.80;8.35;;;;;;;11.68;91.76;102789.47;5035503;28;20052;-70
2021/11/19 06:37:19;;;;;;;20.42;8.35;;;;;;;11.68;92.07;102792.91;5053256;28;20383;-70
2021/11/19 06:39:45;;;;;;;19.67;8.23;;;;;;;11.64;92.07;102795.91;5035402;28;20028;-69
2021/11/19 06:42:12;;;;;;;22.65;8.65;;;;;;;11.71;92.23;102802.97;5035446;28;20029;-70
2021/11/19 06:44:40;;;;;;;21.02;8.25;;;;;;;11.74;92.05;102802.69;5053150;28;20029;-70
2021/11/19 06:47:07;;;;;;;15.93;6.85;;;;;;;11.73;92.19;102802.81;5053078;28;20056;-70
2021/11/19 06:49:33;;;;;;;21.80;7.43;;;;;;;11.72;91.71;102806.38;5035321;28;20025;-70
2021/11/19 06:51:59;;;;;;;24.48;7.80;;;;;;;11.75;91.73;102800.91;5035173;28;20082;-70
2021/11/19 06:54:24;;;;;;;24.45;7.78;;;;;;;11.81;91.73;102812.47;5035137;28;20029;-70
2021/11/19 06:56:51;;;;;;;24.27;7.65;;;;;;;11.73;91.41;102808.81;5053747;28;20102;-70
2021/11/19 06:59:16;;;;;;;18.92;7.78;;;;;;;11.79;91.53;102822.94;5035357;28;20074;-70
2021/11/19 07:01:43;;;;;;;21.17;7.63;;;;;;;11.81;91.71;102817.63;5053341;28;20033;-71
2021/11/19 07:04:09;;;;;;;22.33;7.50;;;;;;;11.83;91.78;102836.47;5035338;28;20045;-71
2021/11/19 07:06:36;;;;;;;20.83;7.30;;;;;;;11.83;91.98;102821.72;5052902;28;20464;-71
2021/11/19 07:09:04;;;;;;;19.02;6.55;;;;;;;11.85;92.00;102824.16;5035063;28;20499;-70
2021/11/19 07:11:30;;;;;;;21.30;6.78;;;;;;;11.82;91.96;102827.03;5053025;28;20382;-70
2021/11/19 07:13:56;;;;;;;26.17;7.07;;;;;;;11.86;91.28;102829.22;5052830;28;20108;-70
2021/11/19 07:16:24;;;;;;;21.80;6.68;;;;;;;11.87;91.25;102838.63;5052734;28;20108;-71
2021/11/19 07:18:49;;;;;;;22.05;6.88;;;;;;;11.89;91.05;102838.50;5052713;28;20047;-71
2021/11/19 07:21:15;;;;;;;20.17;6.75;;;;;;;11.86;91.55;102833.59;5034942;28;20025;-72
2021/11/19 07:23:41;;;;;;;17.55;6.40;;;;;;;11.87;91.21;102840.41;5034844;28;20123;-70
2021/11/19 07:26:06;;;;;;;20.33;6.65;;;;;;;11.87;91.10;102843.00;5052732;28;20021;-70
2021/11/19 07:28:33;;;;;;;19.73;7.20;;;;;;;11.86;91.46;102846.56;5035191;28;20498;-70
2021/11/19 07:31:01;;;;;;;17.38;7.20;;;;;;;11.88;91.46;102842.88;5052689;28;20028;-70
2021/11/19 07:33:27;;;;;;;22.05;6.32;;;;;;;11.86;90.97;102841.38;5052563;28;20048;-71
2021/11/19 07:35:55;;;;;;;22.40;6.38;;;;;;;11.90;91.07;102851.28;5037702;28;20029;-70
2021/11/19 07:38:22;;;;;;;18.10;6.20;;;;;;;11.91;91.08;102847.75;5056374;28;20403;-71
2021/11/19 07:40:48;;;;;;;17.23;6.22;;;;;;;11.91;91.23;102855.53;5056613;28;20030;-70
2021/11/19 07:43:15;;;;;;;22.70;6.88;;;;;;;11.91;90.97;102852.09;5056195;28;20029;-71
2021/11/19 07:45:42;;;;;;;19.95;6.35;;;;;;;11.95;90.64;102856.84;5038287;28;20028;-72
2021/11/19 07:48:24;;;;;;;13.32;5.75;;;;;;;12.00;90.65;102856.44;5038195;28;20056;-69
2021/11/19 07:50:51;;;;;;;13.70;5.93;;;;;;;11.90;90.93;102859.06;5056056;28;20035;-70
2021/11/19 07:53:18;;;;;;;17.58;5.85;;;;;;;12.01;90.26;102871.00;5055989;28;20480;-70
2021/11/19 07:55:48;;;;;;;21.58;6.00;;;;;;;12.01;90.24;102867.59;5055804;28;20021;-71
2021/11/19 07:58:14;;;;;;;19.73;6.72;;;;;;;11.90;91.06;102872.00;5055632;28;20032;-70
2021/11/19 08:00:43;;;;;;;17.23;5.95;;;;;;;11.99;91.09;102865.16;5037996;28;20025;-70
2021/11/19 08:03:08;;;;;;;19.85;6.95;;;;;;;11.92;90.70;102864.91;5055991;28;20075;-71
2021/11/19 08:05:34;;;;;;;24.73;6.10;;;;;;;11.98;90.93;102866.13;5055664;28;20041;-70
2021/11/19 08:08:00;;;;;;;16.25;5.93;;;;;;;11.99;90.99;102872.09;5055757;28;20033;-70
2021/11/19 08:10:26;;;;;;;16.90;5.88;;;;;;;12.04;90.60;102862.13;5038203;28;20052;-70
2021/11/19 08:12:51;;;;;;;19.13;5.68;;;;;;;12.05;90.46;102872.34;5037733;28;20032;-70
2021/11/19 08:15:21;;;;;;;18.90;5.80;;;;;;;12.14;90.31;102873.22;5055508;28;20532;-70
2021/11/19 08:17:49;;;;;;;20.90;5.70;;;;;;;12.05;90.20;102876.72;5055608;28;20035;-71
2021/11/19 08:20:22;;;;;;;17.58;5.55;;;;;;;12.04;90.53;102875.91;5055486;28;20025;-71
2021/11/19 08:22:48;;;;;;;15.98;5.05;;;;;;;12.13;89.98;102869.84;5055557;28;20037;-72
2021/11/19 08:25:14;;;;;;;21.95;5.70;;;;;;;12.08;90.05;102873.81;5055449;28;20024;-71
2021/11/19 08:27:52;;;;;;;18.17;5.22;;;;;;;12.00;90.05;102865.94;5055350;28;20036;-71
2021/11/19 08:30:22;;;;;;;13.60;5.35;;;;;;;12.12;89.99;102867.41;5055254;28;20163;-72
2021/11/19 08:32:48;;;;;;;15.90;5.05;;;;;;;12.06;90.06;102870.59;5055415;28;20024;-71
2021/11/19 08:35:14;;;;;;;20.45;4.93;;;;;;;12.06;89.69;102863.63;5037302;28;20130;-70
2021/11/19 08:37:40;;;;;;;15.00;4.82;;;;;;;12.10;89.56;102869.31;5037319;28;20025;-70
2021/11/19 08:40:11;;;;;;;13.95;4.72;;;;;;;12.21;89.12;102879.47;5037212;28;20024;-71
2021/11/19 08:42:37;;;;;;;20.48;5.13;;;;;;;12.18;89.20;102880.59;5055170;28;20028;-71
2021/11/19 08:45:03;;;;;;;12.50;4.45;;;;;;;12.18;89.15;102880.59;5036839;28;20032;-70
2021/11/19 08:50:51;;;;;;;22.50;4.38;;;;;;;12.14;89.19;102891.38;5055513;28;20438;-71
2021/11/19 08:53:17;;;;;;;12.57;4.20;;;;;;;12.21;88.75;102878.66;5054896;28;20037;-71
2021/11/19 08:55:48;;;;;;;14.93;4.00;;;;;;;12.35;87.90;102891.13;5036996;28;20036;-71
2021/11/19 08:58:21;;;;;;;13.80;4.38;;;;;;;12.33;88.25;102886.06;5054903;28;20032;-70
2021/11/19 09:00:49;;;;;;;9.23;3.88;;;;;;;12.32;87.53;102889.66;5055107;28;20021;-72
2021/11/19 09:03:14;;;;;;;15.48;4.13;;;;;;;12.34;87.78;102885.13;5054580;28;20028;-72
2021/11/19 09:05:43;;;;;;;13.38;4.25;;;;;;;12.34;88.02;102889.47;5054609;28;20045;-71
2021/11/19 09:08:11;;;;;;;15.75;4.43;;;;;;;12.30;87.92;102896.75;5054517;28;20427;-70
2021/11/19 09:10:38;;;;;;;13.20;4.40;;;;;;;12.26;88.23;102892.00;5055104;28;20025;-70
2021/11/19 09:13:04;;;;;;;15.75;3.90;;;;;;;12.46;87.21;102897.84;5054553;28;20070;-71
2021/11/19 09:15:30;;;;;;;15.90;3.85;;;;;;;12.60;86.53;102893.00;5054348;28;20512;-72
2021/11/19 09:18:13;;;;;;;12.88;4.00;;;;;;;12.56;86.57;102883.88;5054636;28;20028;-71
2021/11/19 09:20:54;;;;;;;9.55;4.03;;;;;;;12.47;86.85;102886.53;5054217;28;20025;-70
2021/11/19 09:23:23;;;;;;;15.73;4.20;;;;;;;12.64;86.42;102883.94;5054821;28;20107;-71
2021/11/19 09:25:50;;;;;;;14.88;3.67;;;;;;;12.84;86.28;102886.38;5036292;28;20123;-71
2021/11/19 09:28:19;;;;;;;12.15;3.60;;;;;;;12.81;86.08;102879.69;5054189;28;20379;-70
2021/11/19 09:30:48;;;;;;;12.15;3.50;;;;;;;12.76;86.06;102891.50;5054011;28;20063;-71
2021/11/19 09:33:16;;;;;;;9.32;3.40;;;;;;;12.73;85.97;102891.78;5054020;28;20116;-72
2021/11/19 09:35:42;;;;;;;11.35;3.70;;;;;;;12.79;85.79;102896.38;5053832;28;20025;-70
2021/11/19 09:38:09;;;;;;;15.32;3.90;;;;;;;12.88;85.78;102898.88;5053914;28;20462;-70
2021/11/19 09:40:57;;;;;;;12.70;3.28;;;;;;;12.94;85.44;102904.44;5053964;28;20017;-71
2021/11/19 09:43:25;;;;;;;14.90;3.55;;;;;;;13.16;84.65;102900.56;5053841;28;20028;-72
2021/11/19 09:46:15;;;;;;;13.38;3.58;;;;;;;13.23;84.30;102897.19;5054026;28;20151;-72
2021/11/19 09:49:18;;;;;;;14.02;3.55;;;;;;;13.16;84.72;102900.56;5036071;28;20063;-73
2021/11/19 09:52:01;;;;;;;13.63;4.03;;;;;;;13.15;84.85;102904.94;5054400;28;20411;-73
2021/11/19 09:54:40;;;;;;;14.27;3.72;;;;;;;13.23;84.26;102894.59;5053644;28;20087;-73
2021/11/19 09:57:36;;;;;;;12.02;4.25;;;;;;;14.13;81.77;102902.81;5053276;28;20061;-72
2021/11/19 10:00:23;;;;;;;16.08;3.47;;;;;;;13.85;81.72;102897.03;5035921;28;20147;-72
2021/11/19 10:03:12;;;;;;;12.18;3.42;;;;;;;13.50;82.91;102898.84;5035738;28;20472;-72
2021/11/19 10:05:45;;;;;;;12.15;3.33;;;;;;;13.48;83.65;102902.56;5054725;28;20053;-72
2021/11/19 10:08:29;;;;;;;;;;;;;;;13.51;83.60;102894.47;5053858;28;20099;-72
2021/11/19 10:10:57;;;;;;;15.77;3.65;;;;;;;14.35;80.21;102897.97;5053514;28;19912;-72
2021/11/19 10:13:31;;;;;;;14.45;3.30;;;;;;;15.69;76.12;102908.00;5035476;28;20033;-72
2021/11/19 10:16:17;;;;;;;10.98;3.28;;;;;;;15.57;74.51;102905.72;5035439;28;20033;-72
2021/11/19 10:19:06;;;;;;;11.13;2.75;;;;;;;14.51;78.89;102908.41;5053435;28;20055;-72
2021/11/19 10:21:43;;;;;;;8.38;2.80;;;;;;;14.50;78.92;102900.75;5035451;28;20020;-71
2021/11/19 10:24:26;;;;;;;10.50;3.22;;;;;;;14.86;77.47;102894.31;5053546;28;20460;-73
2021/11/19 10:26:52;;;;;;;13.68;2.70;;;;;;;18.52;66.16;102896.91;5053697;28;20036;-73
2021/11/19 10:29:33;;;;;;;12.20;3.13;;;;;;;21.35;56.13;102901.63;5035717;28;20025;-73
2021/11/19 10:32:00;;;;;;;9.02;2.90;;;;;;;24.67;45.71;102894.84;5054225;28;20121;-73
2021/11/19 10:34:54;;;;;;;9.07;2.80;;;;;;;23.45;47.17;102896.00;5053097;28;20067;-73
2021/11/19 10:37:47;;;;;;;7.65;2.33;;;;;;;25.20;43.54;102901.78;5052718;28;20048;-71
2021/11/19 10:40:38;;;;;;;11.00;2.40;;;;;;;24.43;44.02;102899.31;5053411;28;20021;-72
2021/11/19 10:43:32;;;;;;;9.00;2.33;;;;;;;21.43;50.64;102892.69;5053055;28;20103;-71
2021/11/19 10:46:00;;;;;;;10.07;2.35;;;;;;;18.82;59.92;102892.38;5053378;28;20029;-71
2021/11/19 10:48:51;;;;;;;6.90;1.90;;;;;;;15.82;69.63;102904.84;5052877;28;20025;-71
2021/11/19 10:51:34;;;;;;;8.05;2.60;;;;;;;15.21;72.01;102904.50;5053426;28;20031;-71
2021/11/19 10:54:11;;;;;;;10.27;2.38;;;;;;;14.96;73.51;102909.78;5053028;28;20075;-69
2021/11/19 10:57:08;;;;;;;9.57;2.67;;;;;;;15.46;72.32;102911.28;5034966;28;20044;-71
2021/11/19 10:59:39;;;;;;;11.38;2.60;;;;;;;15.61;71.74;102908.00;5035154;28;20032;-72
2021/11/19 11:02:05;;;;;;;10.30;2.40;;;;;;;16.47;69.89;102901.84;5052996;28;20045;-75
2021/11/19 11:04:52;;;;;;;7.68;2.40;;;;;;;15.53;71.36;102906.22;5052651;28;20037;-72
2021/11/19 11:07:34;;;;;;;12.15;2.05;;;;;;;14.51;75.47;102902.41;5035252;28;20120;-73
2021/11/19 11:10:09;;;;;;;11.57;2.30;;;;;;;14.97;72.79;102906.19;5056286;28;20483;-71
2021/11/19 11:12:44;;;;;;;8.73;2.25;;;;;;;15.98;69.47;102900.34;5057067;28;20025;-71
2021/11/19 11:15:48;;;;;;;7.57;2.20;;;;;;;14.72;74.46;102910.56;5056564;28;20021;-73
2021/11/19 11:18:21;;;;;;;7.00;2.13;;;;;;;14.19;75.70;102902.19;5057229;28;20111;-70
2021/11/19 11:20:52;;;;;;;9.50;1.83;;;;;;;14.35;75.97;102908.38;5056594;28;20364;-72
2021/11/19 11:23:51;;;;;;;10.00;2.20;;;;;;;14.66;73.86;102903.41;5056441;28;20029;-72
2021/11/19 11:26:26;;;;;;;6.65;2.20;;;;;;;14.92;73.55;102900.66;5038520;28;20020;-71
2021/11/19 11:29:18;;;;;;;13.18;2.33;;;;;;;14.79;74.59;102897.75;5056657;28;20553;-71
2021/11/19 11:32:02;;;;;;;8.40;2.00;;;;;;;15.35;71.97;102904.63;5008656;28;20480;-72
2021/11/19 11:34:34;;;;;;;8.43;2.00;;;;;;;16.12;70.73;102887.59;5056223;28;20033;-71